LBBG Airport Information

Runway Information
Runway 04 Length 10499 ft width 148 ft
Elevation 89 ft Threshold 0 ft Heading 44
Runway 22 Length 10499 ft Width 148 ft
Elevation 121 ft Threshold 0 ft Heading 224
Airport Frequencies
Type APP Name APP Frequency 125.1 MHZ
Type ATIS Name ATIS Frequency 120.95 MHZ
Type TWR Name TWR Frequency 118 MHZ
Airport Navaids
Type VOR-DME Name Burgas Frequency 112000 KHZ
Type NDB Name Burgas Frequency 356 KHZ
Airport Weather Information & NOTAM
Deprecated: The each() function is deprecated. This message will be suppressed on further calls in /storage/content/79/1005879/virtualnac.org/public_html/v2/lib/functions.php on line 164 ADDS - METARS form results

(2102 UTC 19 January 2021)
Data provider http://aviationweather.gov/metar/data/
 
METAR text: LBBG 192100Z 31004KT CAVOK M04/M06 Q1024 NOSIG
Conditions at: LBBG (BURGAS , BG) observed 2100 UTC 19 January 2021
Temperature: -4.0°C (25°F)
Dewpoint: -6.0°C (21°F) [RH = 86%]
Pressure (altimeter): 30.24 inches Hg (1024.0 mb)
Winds: from the NW (310 degrees) at 5 MPH (4 knots; 2.1 m/s)
Visibility: 6 or more miles (10+ km)
Ceiling: ceiling and visibility are OK
Clouds: unknown
Weather: no significant weather observed at this time

METAR text: LBBG 192030Z 30003KT CAVOK M03/M07 Q1024 NOSIG
Conditions at: LBBG (BURGAS , BG) observed 2030 UTC 19 January 2021
Temperature: -3.0°C (27°F)
Dewpoint: -7.0°C (19°F) [RH = 74%]
Pressure (altimeter): 30.24 inches Hg (1024.0 mb)
Winds: from the WNW (300 degrees) at 3 MPH (3 knots; 1.5 m/s)
Visibility: 6 or more miles (10+ km)
Ceiling: ceiling and visibility are OK
Clouds: unknown
Weather: no significant weather observed at this time

Forecast for: LBBG (BURGAS , BG)
Text: TAF LBBG 191700Z 1918/2018 27010KT 9999 BKN035
Forecast period: 1800 UTC 19 January 2021 to 1800 UTC 20 January 2021
Forecast type: FROM: standard forecast or significant change
Winds: from the W (270 degrees) at 12 MPH (10 knots; 5.1 m/s)
Visibility: 6 or more miles (10+ km)
Ceiling: 3500 feet AGL
Clouds: broken clouds at 3500 feet AGL
Weather: no significant weather forecast for this period